Gaultois, Canada
Current Conditions -  °F | °C
As of 5:00 PM on Monday 22 Dec 2014 (Local Time) from LFVP Reporting Station
Broken Clouds Broken Clouds  
Wind Chill: 28°   Ceiling: 1600
Heat Index: 28°   Visibility: 6mi
Dew Point: 23°   Wind: 3mph
Humidity: 80%   Direction: 20°NNE
Pressure: 30.42"   Gusts: NA
Location:  47.6°N, 55.92°W
Report Text: LFVP 222000Z 02003KT 330V070 9999 BKN016 M02/M05 Q1030 NOSIG
Loading
Personal Weather Stations






























Interactive Weather Map New forecast layout! Learn more

10-Day Weather Forecast

Advertisements
Track Severe Weather on mobile